createdAt,value
2019-01-21T00:00:33.693Z,-5.10
2019-01-21T00:03:02.670Z,-5.20
2019-01-21T00:05:32.211Z,-5.20
2019-01-21T00:08:01.421Z,-5.30
2019-01-21T00:10:30.818Z,-5.30
2019-01-21T00:12:59.772Z,-5.30
2019-01-21T00:15:28.798Z,-5.30
2019-01-21T00:17:57.732Z,-5.20
2019-01-21T00:20:26.668Z,-5.20
2019-01-21T00:22:55.532Z,-5.30
2019-01-21T00:25:24.576Z,-5.30
2019-01-21T00:27:53.513Z,-5.40
2019-01-21T00:30:23.373Z,-5.50
2019-01-21T00:32:52.257Z,-5.50
2019-01-21T00:35:21.393Z,-5.60
2019-01-21T00:37:50.357Z,-5.60
2019-01-21T00:40:19.309Z,-5.60
2019-01-21T00:42:48.445Z,-5.60
2019-01-21T00:45:17.322Z,-5.70
2019-01-21T00:47:46.482Z,-5.80
2019-01-21T00:50:16.708Z,-5.70
2019-01-21T00:52:45.674Z,-5.60
2019-01-21T00:55:15.293Z,-5.60
2019-01-21T00:57:44.377Z,-5.50
2019-01-21T01:00:16.843Z,-5.40
2019-01-21T01:02:45.696Z,-5.40
2019-01-21T01:05:14.949Z,-5.40
2019-01-21T01:07:44.083Z,-5.30
2019-01-21T01:10:13.467Z,-5.30
2019-01-21T01:12:42.385Z,-5.20
2019-01-21T01:15:11.668Z,-5.20
2019-01-21T01:17:40.592Z,-5.20
2019-01-21T01:20:12.565Z,-5.40
2019-01-21T01:22:41.756Z,-5.50
2019-01-21T01:25:10.740Z,-5.60
2019-01-21T01:27:39.588Z,-5.70
2019-01-21T01:30:09.958Z,-5.70
2019-01-21T01:32:38.920Z,-5.70
2019-01-21T01:35:08.974Z,-5.70
2019-01-21T01:37:38.148Z,-5.70
2019-01-21T01:40:10.225Z,-5.80
2019-01-21T01:42:39.521Z,-5.80
2019-01-21T01:45:39.387Z,-5.80
2019-01-21T01:48:08.251Z,-5.80
2019-01-21T01:50:37.167Z,-5.80
2019-01-21T01:53:06.070Z,-5.90
2019-01-21T01:55:34.977Z,-6.00
2019-01-21T01:58:05.957Z,-6.10
2019-01-21T02:00:36.105Z,-6.20
2019-01-21T02:03:05.239Z,-6.20
2019-01-21T02:05:34.394Z,-6.30
2019-01-21T02:08:03.321Z,-6.30
2019-01-21T02:10:32.483Z,-6.30
2019-01-21T02:13:01.628Z,-6.30
2019-01-21T02:15:30.553Z,-6.40
2019-01-21T02:17:59.422Z,-6.40
2019-01-21T02:20:28.509Z,-6.50
2019-01-21T02:23:02.673Z,-6.50
2019-01-21T02:25:53.359Z,-6.50
2019-01-21T02:28:54.774Z,-6.50
2019-01-21T02:32:03.592Z,-6.60
2019-01-21T02:34:48.710Z,-6.60
2019-01-21T02:38:19.002Z,-6.70
2019-01-21T02:41:07.066Z,-6.70
2019-01-21T02:44:01.472Z,-6.70
2019-01-21T02:47:01.216Z,-6.70
2019-01-21T02:50:06.690Z,-6.70
2019-01-21T02:53:04.006Z,-6.70
2019-01-21T02:55:49.534Z,-6.70
2019-01-21T02:58:53.254Z,-6.90
2019-01-21T03:02:05.192Z,-6.90
2019-01-21T03:05:19.396Z,-6.80
2019-01-21T03:08:10.361Z,-6.90
2019-01-21T03:11:06.958Z,-6.80
2019-01-21T03:13:49.114Z,-6.70
2019-01-21T03:17:03.134Z,-6.70
2019-01-21T03:20:14.673Z,-6.90
2019-01-21T03:23:13.948Z,-6.90
2019-01-21T03:26:19.310Z,-7.00
2019-01-21T03:29:22.462Z,-7.00
2019-01-21T03:32:38.567Z,-7.00
2019-01-21T03:35:38.645Z,-7.10
2019-01-21T03:38:35.313Z,-7.10
2019-01-21T03:41:19.404Z,-7.10
2019-01-21T03:44:18.388Z,-7.20
2019-01-21T03:47:22.435Z,-7.20
2019-01-21T03:50:30.113Z,-7.10
2019-01-21T03:53:28.879Z,-7.10
2019-01-21T03:56:01.965Z,-7.10
2019-01-21T03:58:48.092Z,-7.10
2019-01-21T04:01:44.611Z,-7.10
2019-01-21T04:04:53.341Z,-7.10
2019-01-21T04:07:37.061Z,-7.10
2019-01-21T04:10:43.261Z,-7.10
2019-01-21T04:13:53.100Z,-7.20
2019-01-21T04:16:37.392Z,-7.20
2019-01-21T04:19:38.114Z,-7.20
2019-01-21T04:22:32.672Z,-7.20
2019-01-21T04:25:36.368Z,-7.20
2019-01-21T04:28:23.781Z,-7.20
2019-01-21T04:31:26.247Z,-7.20
2019-01-21T04:34:37.970Z,-7.20
2019-01-21T04:37:43.043Z,-7.20
2019-01-21T04:40:42.873Z,-7.30
2019-01-21T04:43:43.261Z,-7.30
2019-01-21T04:46:51.856Z,-7.20
2019-01-21T04:50:01.879Z,-7.20
2019-01-21T04:53:10.672Z,-7.20
2019-01-21T04:56:22.736Z,-7.20
2019-01-21T04:59:30.102Z,-7.30
2019-01-21T05:02:49.409Z,-7.30
2019-01-21T05:06:04.290Z,-7.30
2019-01-21T05:09:23.284Z,-7.20
2019-01-21T05:12:35.624Z,-7.20
2019-01-21T05:15:29.113Z,-7.20
2019-01-21T05:18:41.191Z,-7.20
2019-01-21T05:21:51.276Z,-7.20
2019-01-21T05:24:53.857Z,-7.20
2019-01-21T05:27:36.517Z,-7.20
2019-01-21T05:30:35.412Z,-7.20
2019-01-21T05:33:18.713Z,-7.20
2019-01-21T05:36:04.560Z,-7.20
2019-01-21T05:39:16.143Z,-7.20
2019-01-21T05:42:19.211Z,-7.10
2019-01-21T05:45:12.957Z,-7.10
2019-01-21T05:48:17.680Z,-7.00
2019-01-21T05:51:17.729Z,-7.00
2019-01-21T05:54:39.160Z,-7.00
2019-01-21T05:57:46.313Z,-6.90
2019-01-21T06:00:29.096Z,-6.70
2019-01-21T06:03:27.312Z,-6.50
2019-01-21T06:06:19.176Z,-6.30
2019-01-21T06:09:25.200Z,-6.40
2019-01-21T06:12:00.966Z,-6.50
2019-01-21T06:15:19.385Z,-6.60
2019-01-21T06:18:23.285Z,-6.60
2019-01-21T06:21:27.221Z,-6.40
2019-01-21T06:24:22.764Z,-6.50
2019-01-21T06:27:34.736Z,-6.50
2019-01-21T06:30:33.793Z,-6.40
2019-01-21T06:33:39.500Z,-6.20
2019-01-21T06:36:22.669Z,-6.30
2019-01-21T06:39:07.867Z,-6.30
2019-01-21T06:42:15.645Z,-6.30
2019-01-21T06:45:15.453Z,-6.10
2019-01-21T06:48:34.935Z,-5.80
2019-01-21T06:51:47.402Z,-5.90
2019-01-21T06:54:45.755Z,-5.80
2019-01-21T06:57:28.820Z,-5.90
2019-01-21T07:01:03.320Z,-6.00
2019-01-21T07:04:17.857Z,-6.10
2019-01-21T07:07:34.560Z,-6.20
2019-01-21T07:10:28.380Z,-6.30
2019-01-21T07:13:38.709Z,-6.20
2019-01-21T07:16:48.832Z,-6.30
2019-01-21T07:20:06.173Z,-6.40
2019-01-21T07:22:55.677Z,-6.40
2019-01-21T07:25:57.353Z,-6.50
2019-01-21T07:29:03.777Z,-6.50
2019-01-21T07:31:58.185Z,-6.60
2019-01-21T07:34:51.400Z,-6.60
2019-01-21T07:37:59.240Z,-6.60
2019-01-21T07:40:46.306Z,-6.60
2019-01-21T07:43:43.115Z,-6.60
2019-01-21T07:46:51.966Z,-6.60
2019-01-21T07:49:57.125Z,-6.60
2019-01-21T07:53:02.432Z,-6.50
2019-01-21T07:56:18.713Z,-6.40
2019-01-21T07:59:12.478Z,-6.40
2019-01-21T08:01:57.724Z,-6.30
2019-01-21T08:04:55.853Z,-6.10
2019-01-21T08:07:35.523Z,-6.00
2019-01-21T08:10:51.222Z,-5.90
2019-01-21T08:13:45.380Z,-5.80
2019-01-21T08:16:58.877Z,-5.70
2019-01-21T08:20:08.677Z,-5.60
2019-01-21T08:23:16.895Z,-5.50
2019-01-21T08:26:14.757Z,-5.50
2019-01-21T08:28:53.522Z,-5.40
2019-01-21T08:32:03.465Z,-5.30
2019-01-21T08:34:48.557Z,-5.10
2019-01-21T08:37:40.482Z,-5.00
2019-01-21T08:40:36.402Z,-5.00
2019-01-21T08:43:52.517Z,-4.70
2019-01-21T08:46:56.711Z,-4.50
2019-01-21T08:50:15.340Z,-4.30
2019-01-21T08:53:24.734Z,-4.20
2019-01-21T08:56:31.722Z,-4.00
2019-01-21T08:59:42.098Z,-3.90
2019-01-21T09:02:33.055Z,-3.80
2019-01-21T09:05:36.150Z,-3.80
2019-01-21T09:08:53.060Z,-3.60
2019-01-21T09:11:50.502Z,-3.50
2019-01-21T09:14:57.700Z,-3.40
2019-01-21T09:17:45.701Z,-3.30
2019-01-21T09:20:45.297Z,-3.10
2019-01-21T09:23:30.178Z,-3.10
2019-01-21T09:26:39.298Z,-3.00
2019-01-21T09:29:29.551Z,-2.80
2019-01-21T09:32:54.786Z,-2.70
2019-01-21T09:35:45.073Z,-2.70
2019-01-21T09:38:43.065Z,-2.50
2019-01-21T09:41:49.221Z,-2.50
2019-01-21T09:44:50.569Z,-2.40
2019-01-21T09:47:18.030Z,-2.30
2019-01-21T09:49:47.556Z,-2.30
2019-01-21T09:52:20.233Z,-2.30
2019-01-21T09:54:50.077Z,-2.20
2019-01-21T09:57:25.201Z,-2.10
2019-01-21T09:59:56.667Z,-2.10
2019-01-21T10:02:34.753Z,-2.00
2019-01-21T10:05:08.612Z,-1.90
2019-01-21T10:08:07.599Z,-1.90
2019-01-21T10:11:18.696Z,-1.80
2019-01-21T10:14:24.846Z,-1.80
2019-01-21T10:17:34.853Z,-1.60
2019-01-21T10:20:42.081Z,-1.60
2019-01-21T10:23:39.152Z,-1.60
2019-01-21T10:27:01.512Z,-1.50
2019-01-21T10:30:03.739Z,-1.40
2019-01-21T10:33:12.173Z,-1.20
2019-01-21T10:36:06.948Z,-1.10
2019-01-21T10:39:19.082Z,-0.90
2019-01-21T10:42:14.518Z,0.80
2019-01-21T10:45:19.101Z,2.90
2019-01-21T10:48:09.360Z,5.10
2019-01-21T10:51:00.673Z,4.90
2019-01-21T10:54:05.619Z,5.50
2019-01-21T10:57:09.916Z,5.30
2019-01-21T11:00:01.582Z,5.00
2019-01-21T11:03:32.885Z,5.50
2019-01-21T11:06:41.572Z,5.80
2019-01-21T11:09:35.266Z,6.60
2019-01-21T11:12:56.756Z,7.50
2019-01-21T11:15:47.241Z,6.70
2019-01-21T11:18:44.735Z,7.70
2019-01-21T11:21:41.506Z,7.20
2019-01-21T11:25:04.153Z,7.40
2019-01-21T11:28:03.416Z,6.40
2019-01-21T11:31:08.137Z,5.00
2019-01-21T11:33:58.431Z,4.10
2019-01-21T11:37:00.486Z,3.50
2019-01-21T11:40:01.461Z,3.10
2019-01-21T11:43:10.089Z,2.70
2019-01-21T11:46:16.332Z,2.50
2019-01-21T11:49:04.627Z,2.50
2019-01-21T11:52:27.429Z,2.00
2019-01-21T11:55:05.342Z,1.50
2019-01-21T11:58:15.613Z,1.20
2019-01-21T12:01:32.110Z,1.10
2019-01-21T12:04:14.241Z,0.90
2019-01-21T12:06:52.856Z,0.80
2019-01-21T12:09:44.377Z,0.70
2019-01-21T12:12:40.652Z,0.80
2019-01-21T12:15:45.484Z,0.90
2019-01-21T12:18:24.048Z,0.80
2019-01-21T12:21:49.703Z,0.60
2019-01-21T12:24:28.764Z,0.50
2019-01-21T12:27:40.971Z,0.50
2019-01-21T12:30:55.017Z,0.50
2019-01-21T12:34:05.600Z,0.50
2019-01-21T12:36:59.084Z,0.50
2019-01-21T12:40:06.921Z,0.50
2019-01-21T12:43:23.149Z,0.40
2019-01-21T12:46:39.575Z,0.40
2019-01-21T12:49:49.860Z,0.50
2019-01-21T12:52:41.083Z,0.50
2019-01-21T12:55:38.964Z,0.40
2019-01-21T12:58:55.780Z,0.40
2019-01-21T13:02:00.413Z,0.40
2019-01-21T13:04:51.422Z,0.40
2019-01-21T13:07:46.134Z,0.40
2019-01-21T13:11:08.171Z,0.40
2019-01-21T13:14:04.021Z,0.40
2019-01-21T13:16:47.350Z,0.30
2019-01-21T13:20:09.704Z,0.30
2019-01-21T13:23:13.736Z,0.30
2019-01-21T13:26:32.181Z,0.20
2019-01-21T13:29:31.062Z,0.30
2019-01-21T13:32:41.712Z,0.30
2019-01-21T13:35:45.835Z,0.40
2019-01-21T13:38:58.073Z,0.40
2019-01-21T13:42:03.405Z,0.40
2019-01-21T13:44:56.273Z,0.40
2019-01-21T13:47:45.096Z,0.30
2019-01-21T13:50:28.486Z,0.20
2019-01-21T13:53:38.301Z,0.10
2019-01-21T13:56:47.084Z,0.10
2019-01-21T14:00:05.929Z,0.10
2019-01-21T14:02:43.043Z,0.00
2019-01-21T14:06:02.138Z,0.20
2019-01-21T14:09:15.479Z,0.10
2019-01-21T14:12:13.655Z,0.10
2019-01-21T14:15:29.545Z,0.20
2019-01-21T14:18:34.557Z,0.10
2019-01-21T14:21:09.250Z,0.10
2019-01-21T14:24:27.550Z,0.00
2019-01-21T14:27:29.628Z,0.00
2019-01-21T14:30:07.281Z,0.00
2019-01-21T14:33:03.314Z,0.00
2019-01-21T14:36:06.274Z,0.00
2019-01-21T14:38:45.563Z,0.10
2019-01-21T14:41:51.977Z,0.10
2019-01-21T14:45:16.683Z,0.00
2019-01-21T14:48:13.048Z,0.00
2019-01-21T14:51:11.139Z,-0.10
2019-01-21T14:54:16.023Z,-0.10
2019-01-21T14:57:29.865Z,-0.20
2019-01-21T15:00:45.284Z,-0.30
2019-01-21T15:03:57.883Z,-0.30
2019-01-21T15:06:58.795Z,-0.30
2019-01-21T15:10:11.899Z,-0.30
2019-01-21T15:13:15.973Z,-0.30
2019-01-21T15:16:16.531Z,-0.40
2019-01-21T15:19:09.524Z,-0.60
2019-01-21T15:22:04.045Z,-0.70
2019-01-21T15:24:56.794Z,-0.80
2019-01-21T15:27:43.059Z,-0.80
2019-01-21T15:30:53.715Z,-0.90
2019-01-21T15:33:35.677Z,-1.00
2019-01-21T15:36:31.864Z,-1.10
2019-01-21T15:39:23.258Z,-1.10
2019-01-21T15:42:51.885Z,-1.10
2019-01-21T15:45:50.796Z,-1.20
2019-01-21T15:48:30.245Z,-1.40
2019-01-21T15:51:21.019Z,-1.50
2019-01-21T15:54:26.262Z,-1.60
2019-01-21T15:57:39.158Z,-1.60
2019-01-21T16:00:43.069Z,-1.70
2019-01-21T16:03:39.705Z,-1.70
2019-01-21T16:06:34.078Z,-1.80
2019-01-21T16:09:52.250Z,-1.90
2019-01-21T16:12:59.236Z,-1.90
2019-01-21T16:15:53.022Z,-2.00
2019-01-21T16:18:34.650Z,-2.10
2019-01-21T16:21:48.526Z,-2.20
2019-01-21T16:24:42.922Z,-2.30
2019-01-21T16:27:22.412Z,-2.40
2019-01-21T16:30:33.087Z,-2.50
2019-01-21T16:33:13.873Z,-2.60
2019-01-21T16:36:15.080Z,-2.60
2019-01-21T16:38:57.297Z,-2.70
2019-01-21T16:42:16.056Z,-2.80
2019-01-21T16:45:04.852Z,-2.90
2019-01-21T16:47:34.061Z,-2.90
2019-01-21T16:50:02.955Z,-2.90
2019-01-21T16:52:31.755Z,-2.90
2019-01-21T16:55:00.894Z,-2.90
2019-01-21T16:57:31.285Z,-3.00
2019-01-21T17:00:03.441Z,-3.00
2019-01-21T17:02:34.659Z,-3.00
2019-01-21T17:05:04.303Z,-3.00
2019-01-21T17:07:38.006Z,-3.10
2019-01-21T17:10:08.864Z,-3.10
2019-01-21T17:12:38.106Z,-3.20
2019-01-21T17:15:08.156Z,-3.30
2019-01-21T17:17:37.158Z,-3.30
2019-01-21T17:20:10.934Z,-3.30
2019-01-21T17:22:39.738Z,-3.40
2019-01-21T17:25:08.938Z,-3.50
2019-01-21T17:27:37.828Z,-3.40
2019-01-21T17:30:08.507Z,-3.50
2019-01-21T17:32:37.427Z,-3.50
2019-01-21T17:35:08.008Z,-3.50
2019-01-21T17:37:37.256Z,-3.60
2019-01-21T17:40:08.321Z,-3.60
2019-01-21T17:42:37.145Z,-3.70
2019-01-21T17:45:09.725Z,-3.70
2019-01-21T17:47:38.863Z,-3.70
2019-01-21T17:50:10.130Z,-3.70
2019-01-21T17:52:39.024Z,-3.80
2019-01-21T17:55:08.254Z,-3.80
2019-01-21T17:57:37.420Z,-3.80
2019-01-21T18:00:08.917Z,-3.90
2019-01-21T18:02:38.034Z,-4.00
2019-01-21T18:05:07.374Z,-4.10
2019-01-21T18:07:36.268Z,-4.20
2019-01-21T18:10:08.289Z,-4.10
2019-01-21T18:12:37.260Z,-4.00
2019-01-21T18:15:07.979Z,-4.20
2019-01-21T18:17:37.141Z,-4.20
2019-01-21T18:20:09.912Z,-4.20
2019-01-21T18:22:38.691Z,-4.30
2019-01-21T18:25:08.809Z,-4.30
2019-01-21T18:27:37.604Z,-4.30
2019-01-21T18:30:09.298Z,-4.30
2019-01-21T18:32:38.073Z,-4.40
2019-01-21T18:35:08.415Z,-4.40
2019-01-21T18:37:37.348Z,-4.30
2019-01-21T18:40:08.227Z,-4.40
2019-01-21T18:42:37.153Z,-4.30
2019-01-21T18:45:07.231Z,-4.40
2019-01-21T18:47:36.425Z,-4.40
2019-01-21T18:50:06.669Z,-4.40
2019-01-21T18:52:40.473Z,-4.50
2019-01-21T18:55:10.820Z,-4.60
2019-01-21T18:57:39.654Z,-4.70
2019-01-21T19:00:13.030Z,-4.70
2019-01-21T19:02:43.350Z,-4.80
2019-01-21T19:05:12.574Z,-4.80
2019-01-21T19:07:41.500Z,-4.90
2019-01-21T19:10:11.622Z,-5.00
2019-01-21T19:12:40.524Z,-5.00
2019-01-21T19:15:15.922Z,-5.10
2019-01-21T19:17:44.854Z,-5.00
2019-01-21T19:20:15.221Z,-4.90
2019-01-21T19:22:45.240Z,-4.90
2019-01-21T19:25:14.189Z,-5.00
2019-01-21T19:27:43.054Z,-5.00
2019-01-21T19:30:31.189Z,-5.10
2019-01-21T19:33:00.021Z,-5.10
2019-01-21T19:35:31.428Z,-5.20
2019-01-21T19:38:00.575Z,-5.30
2019-01-21T19:40:29.771Z,-5.30
2019-01-21T19:42:59.568Z,-5.30
2019-01-21T19:45:28.793Z,-5.30
2019-01-21T19:47:57.682Z,-5.30
2019-01-21T19:50:26.725Z,-5.40
2019-01-21T19:52:55.998Z,-5.40
2019-01-21T19:55:28.293Z,-5.40
2019-01-21T19:57:57.277Z,-5.50
2019-01-21T20:00:26.365Z,-5.50
2019-01-21T20:02:55.213Z,-5.60
2019-01-21T20:05:24.232Z,-5.60
2019-01-21T20:07:53.188Z,-5.50
2019-01-21T20:10:22.240Z,-5.60
2019-01-21T20:12:51.072Z,-5.40
2019-01-21T20:15:20.405Z,-5.60
2019-01-21T20:17:49.468Z,-5.60
2019-01-21T20:20:23.694Z,-5.60
2019-01-21T20:22:57.467Z,-5.70
2019-01-21T20:25:23.685Z,-5.70
2019-01-21T20:27:52.763Z,-5.70
2019-01-21T20:30:22.070Z,-5.70
2019-01-21T20:32:51.024Z,-5.70
2019-01-21T20:35:20.131Z,-5.80
2019-01-21T20:37:49.088Z,-5.80
2019-01-21T20:40:23.245Z,-5.80
2019-01-21T20:42:52.227Z,-5.80
2019-01-21T20:45:21.682Z,-5.80
2019-01-21T20:47:50.731Z,-5.90
2019-01-21T20:50:22.185Z,-5.90
2019-01-21T20:52:50.960Z,-5.90
2019-01-21T20:55:20.719Z,-6.00
2019-01-21T20:57:49.656Z,-6.00
2019-01-21T21:00:23.648Z,-6.00
2019-01-21T21:02:52.980Z,-6.00
2019-01-21T21:05:21.982Z,-6.00
2019-01-21T21:07:50.833Z,-6.00
2019-01-21T21:10:19.793Z,-6.00
2019-01-21T21:12:48.621Z,-5.90
2019-01-21T21:15:20.149Z,-5.90
2019-01-21T21:17:48.913Z,-6.00
2019-01-21T21:20:17.852Z,-6.00
2019-01-21T21:22:46.688Z,-6.00
2019-01-21T21:25:18.414Z,-6.00
2019-01-21T21:27:47.322Z,-6.00
2019-01-21T21:30:19.170Z,-6.00
2019-01-21T21:32:48.025Z,-6.00
2019-01-21T21:35:16.992Z,-6.00
2019-01-21T21:37:46.137Z,-6.00
2019-01-21T21:40:16.593Z,-6.00
2019-01-21T21:42:45.805Z,-6.00
2019-01-21T21:45:16.008Z,-6.00
2019-01-21T21:47:44.869Z,-6.00
2019-01-21T21:50:16.121Z,-6.00
2019-01-21T21:52:44.929Z,-6.00
2019-01-21T21:55:13.938Z,-6.00
2019-01-21T21:57:42.710Z,-6.10
2019-01-21T22:00:15.300Z,-6.10
2019-01-21T22:02:44.373Z,-6.20
2019-01-21T22:05:13.795Z,-6.20
2019-01-21T22:07:42.687Z,-6.30
2019-01-21T22:10:13.683Z,-6.40
2019-01-21T22:12:42.613Z,-6.60
2019-01-21T22:15:13.771Z,-6.60
2019-01-21T22:17:42.944Z,-6.60
2019-01-21T22:20:16.676Z,-6.60
2019-01-21T22:22:45.463Z,-6.70
2019-01-21T22:25:14.637Z,-6.80
2019-01-21T22:27:43.490Z,-6.80
2019-01-21T22:30:17.662Z,-6.80
2019-01-21T22:32:46.569Z,-6.80
2019-01-21T22:35:15.513Z,-6.90
2019-01-21T22:37:45.332Z,-6.90
2019-01-21T22:40:16.582Z,-7.00
2019-01-21T22:42:45.668Z,-7.00
2019-01-21T22:45:15.816Z,-7.00
2019-01-21T22:47:44.989Z,-7.00
2019-01-21T22:50:15.220Z,-7.00
2019-01-21T22:52:44.106Z,-7.10
2019-01-21T22:55:14.241Z,-7.10
2019-01-21T22:57:43.232Z,-7.10
2019-01-21T23:00:58.311Z,-7.20
2019-01-21T23:03:28.514Z,-7.20
2019-01-21T23:05:57.586Z,-7.30
2019-01-21T23:08:26.423Z,-7.30
2019-01-21T23:10:55.378Z,-7.30
2019-01-21T23:13:24.246Z,-7.30
2019-01-21T23:15:53.046Z,-7.30
2019-01-21T23:18:21.865Z,-7.30
2019-01-21T23:20:51.012Z,-7.40
2019-01-21T23:23:20.022Z,-7.40
2019-01-21T23:25:48.929Z,-7.40
2019-01-21T23:28:17.766Z,-7.50
2019-01-21T23:30:46.533Z,-7.40
2019-01-21T23:33:15.316Z,-7.40
2019-01-21T23:35:44.064Z,-7.40
2019-01-21T23:38:12.824Z,-7.50
2019-01-21T23:40:41.663Z,-7.50
2019-01-21T23:43:10.758Z,-7.60
2019-01-21T23:45:39.505Z,-7.60
2019-01-21T23:48:08.664Z,-7.70
2019-01-21T23:50:37.985Z,-7.70
2019-01-21T23:53:06.826Z,-7.80
2019-01-21T23:55:35.656Z,-7.80
2019-01-21T23:58:04.577Z,-7.80
